AirNav   Air Wisconsin Up To $57,000 Bonus
 
 1169 users online  

4MO9 Friends Field Airport
Lone Jack, Missouri, USA

GOING TO LONE JACK?


FAA INFORMATION EFFECTIVE 03 NOVEMBER 2022

Location

FAA Identifier: 4MO9
Lat/Long: 38-53-33.0300N 094-06-30.8020W
38-53.550500N 094-06.513367W
38.8925083,-94.1085561
(estimated)
Elevation: 1100 ft. / 335 m (estimated)
Variation: 04E (1990)
From city: 4 miles NE of LONE JACK, MO
Time zone: UTC -6 (UTC -5 during Daylight Saving Time)
Zip code: 64070

Airport Operations

Airport use: Private use. Permission required prior to landing
Activation date: 07/1992
Control tower: no
ARTCC: KANSAS CITY CENTER
FSS: COLUMBIA FLIGHT SERVICE STATION
Attendance: UNATNDD
Wind indicator: yes
Segmented circle: no

Airport Communications

WX ASOS at LXT (13 nm W): 124.175 (816-347-9807)
WX AWOS-3PT at RCM (16 nm SE): 119.575 (660-422-7010)

Nearby radio navigation aids

VOR radial/distance  VOR name  Freq  Var
ANXr169/12.2NAPOLEON VORTAC114.0007E
MCIr124/37.6KANSAS CITY VORTAC113.2505E

Airport Services

Runway Information

Runway 11/29

Dimensions: 1700 x 60 ft. / 518 x 18 m
Surface: turf
RUNWAY 11  RUNWAY 29
Traffic pattern: leftleft

Airport Ownership and Management from official FAA records

Ownership: Privately-owned
Owner: GERALD GRIMMETT
839 NW 1971
LONE JACK, MO 64070
Phone 816-304-8979
Manager: GERALD GRIMMETT
839 NW 1971
LONE JACK, MO 64070
Phone 816-304-8979

Airport Operational Statistics

Aircraft based on the field: 2
Single engine airplanes: 2
    

Additional Remarks

FOR CD CTC KANSAS CITY APCH AT 816-329-2710.

Instrument Procedures

There are no published instrument procedures at 4MO9.

Some nearby airports with instrument procedures:

3GV - East Kansas City Airport (9 nm NW)
KLXT - Lee's Summit Municipal Airport (13 nm W)
KRCM - Skyhaven Airport (16 nm SE)
KLRY - Lawrence Smith Memorial Airport (20 nm SW)
KHIG - Higginsville Industrial Municipal Airport (23 nm NE)
 
Loc | Ops | Rwys | IFR | FBO | Links
Com | Nav | Svcs | Stats | Notes
Area around 4MO9 (Friends Field Airport)
 
Road maps at: MapQuest Bing Google
 
Aerial photo
No photo
 
Sectional chart

 
Airport distance calculator
Flying to Friends Field Airport? Find the distance to fly.

From to 4MO9

Sunrise and sunset
Times for 29-Nov-2022
 Local
(UTC-6)
 Zulu
(UTC)
Morning civil twilight06:4612:46
Sunrise07:1513:15
Sunset16:5422:54
Evening civil twilight17:2423:24

Current date and time
Zulu (UTC)  29-Nov-2022 23:55:16
Local (UTC-6)  29-Nov-2022 17:55:16
 
METAR
KLXT 
13nm W 
292253Z AUTO 32017G23KT 10SM OVC018 01/M03 A2980 RMK AO2 PK WND 33026/2232 SLP097 T00061033
KRCM 
16nm SE 
292315Z AUTO 29012G16KT 10SM OVC017 01/M02 A2981 RMK AO2
KLRY 
20nm SW 
292315Z AUTO 33011G21KT 10SM OVC021 02/M02 A2985 RMK AO2
KGVW 
22nm W 
292030Z AUTO 15016KT 3SM BR FEW035 BKN043 OVC055 22/22 A2979 RMK A01
TAF
KMKC 
27nm NW 
291728Z 2918/3018 29016G26KT P6SM BKN018 FM300100 32013G23KT P6SM SCT070 FM301200 30010KT P6SM SKC
KSZL 
29nm E 
291900Z 2919/0101 24025G35KT 9999 BKN040 QNH2940INS BECMG 2919/2921 30025G35KT 9999 OVC020 QNH2945INS BECMG 3003/3004 31015G25KT 9999 BKN040 620402 QNH2980INS BECMG 3006/3007 30012KT 9999 FEW120 QNH3010INS BECMG 3015/3016 29012G20KT 9999 SKC QNH3030INS TX18/2919Z TNM03/3012Z
NOTAMs
Click for the latest NOTAMs
NOTAMs are issued by the DoD/FAA and will open in a separate window not controlled by AirNav.

 

 
 

Would you like to see your business listed on this page?

 If your business provides an interesting product or service to pilots, flight crews, aircraft, or users of the Friends Field Airport, you should consider listing it here.  To start the listing process, click on the button below
 
Add a business
 

Other Pages about Friends Field Airport

Update a link
 
Copyright © AirNav, LLC. All rights reserved. Privacy Policy  Contact